Pine Hill, Alabama
Current Conditions -  °F | °C
As of 10:55 AM on Thursday 30 Oct 2014 (Local Time) from KDYA Reporting Station
Clear Clear  
Wind Chill: 65°   Ceiling: Unl
Heat Index: 65°   Visibility: 10mi
Dew Point: 39°   Wind: 6mph
Humidity: 39%   Direction: 360°N
Pressure: 30.15"   Gusts: NA
Location:  31.98°N, 87.59°W
Report Text: KDYA 301555Z AUTO 36005KT 10SM CLR 18/04 A3015 RMK AO2 T01820039
Loading
Personal Weather Stations






























Interactive Weather Map
Tropical Storm Tracking
New forecast layout! Learn more

10-Day Weather Forecast

Advertisements
Track Severe Weather on mobile